Time;durP1;ratioP1;P1;durP2;ratioP2;P2;SDS_P1;SDS_P2;PMS_P1;PMS_P2;Temp;Humidity;BMP_temperature;BMP_pressure;BME280_temperature;BME280_humidity;BME280_pressure;Samples;Min_cycle;Max_cycle;Signal;HPM_P1;HPM_P2
2021/10/28 00:13:09;;;;;;;1.90;1.33;;;22.00;54.80;;;;;;6241442;23;20382;-77
2021/10/28 00:15:38;;;;;;;2.77;1.57;;;22.00;54.80;;;;;;6216052;23;20402;-77
2021/10/28 00:18:15;;;;;;;2.47;1.30;;;22.10;54.80;;;;;;6241788;23;20366;-76
2021/10/28 00:20:56;;;;;;;1.80;1.70;;;22.00;54.70;;;;;;6283512;22;20380;-76
2021/10/28 00:23:23;;;;;;;2.17;1.63;;;22.10;54.80;;;;;;6278115;22;20376;-77
2021/10/28 00:25:55;;;;;;;1.60;1.23;;;22.10;54.80;;;;;;6276779;22;20398;-76
2021/10/28 00:28:22;;;;;;;1.67;1.27;;;22.10;54.80;;;;;;6277179;22;20385;-77
2021/10/28 00:30:49;;;;;;;2.50;1.53;;;22.10;54.80;;;;;;6277496;22;20372;-77
2021/10/28 00:33:16;;;;;;;2.20;1.37;;;22.10;54.80;;;;;;6304137;22;20368;-77
2021/10/28 00:35:49;;;;;;;2.17;1.53;;;22.10;54.80;;;;;;6277566;22;20412;-76
2021/10/28 00:38:17;;;;;;;2.03;1.43;;;22.10;54.70;;;;;;6252451;22;20380;-76
2021/10/28 00:40:43;;;;;;;2.30;1.37;;;22.10;54.70;;;;;;6303549;22;20849;-76
2021/10/28 00:43:10;;;;;;;1.73;1.40;;;22.10;54.70;;;;;;6277324;22;20381;-77
2021/10/28 00:45:40;;;;;;;2.90;1.53;;;22.10;54.80;;;;;;6252552;22;20467;-77
2021/10/28 00:48:12;;;;;;;1.90;1.20;;;22.10;54.80;;;;;;6300216;22;20369;-76
2021/10/28 00:50:40;;;;;;;1.60;1.30;;;22.10;54.80;;;;;;6252682;22;20388;-76
2021/10/28 00:53:06;;;;;;;1.70;1.60;;;22.10;54.80;;;;;;6277419;22;20400;-76
2021/10/28 00:55:42;;;;;;;3.97;1.40;;;22.00;54.70;;;;;;6303449;22;20423;-75
2021/10/28 00:58:11;;;;;;;1.53;1.27;;;22.10;54.80;;;;;;6253267;22;20375;-76
2021/10/28 01:00:45;;;;;;;1.40;1.30;;;22.00;54.70;;;;;;6303350;22;20347;-76
2021/10/28 01:03:18;;;;;;;1.70;1.43;;;22.00;54.70;;;;;;6276267;22;20415;-76
2021/10/28 01:05:45;;;;;;;1.97;1.40;;;22.00;54.70;;;;;;6252026;22;20440;-76
2021/10/28 01:08:16;;;;;;;2.10;1.40;;;22.00;54.70;;;;;;6251812;22;20368;-77
2021/10/28 01:10:50;;;;;;;1.83;1.53;;;22.00;54.80;;;;;;6276781;22;20450;-76
2021/10/28 01:13:20;;;;;;;1.87;1.37;;;22.00;54.70;;;;;;6303492;22;20372;-76
2021/10/28 01:15:54;;;;;;;1.70;1.30;;;22.00;54.80;;;;;;6252091;22;20450;-77
2021/10/28 01:18:23;;;;;;;2.47;1.50;;;22.00;54.80;;;;;;6277420;22;20361;-76
2021/10/28 01:20:52;;;;;;;2.33;1.40;;;22.00;54.80;;;;;;6252446;22;20380;-77
2021/10/28 01:23:29;;;;;;;1.40;1.17;;;22.00;54.80;;;;;;6302986;22;20340;-76
2021/10/28 01:26:05;;;;;;;1.87;1.27;;;22.00;54.80;;;;;;6276749;22;20373;-76
2021/10/28 01:28:33;;;;;;;1.53;1.23;;;22.00;55.30;;;;;;6276857;22;20396;-76
2021/10/28 01:31:02;;;;;;;1.73;1.30;;;22.00;54.80;;;;;;6276673;22;20388;-76
2021/10/28 01:33:30;;;;;;;2.43;1.50;;;22.00;54.80;;;;;;6252592;22;20377;-77
2021/10/28 01:35:58;;;;;;;1.80;1.40;;;22.00;54.80;;;;;;6276385;22;20423;-76
2021/10/28 01:38:26;;;;;;;3.00;1.40;;;22.00;54.80;;;;;;6251702;22;20379;-76
2021/10/28 01:41:10;;;;;;;1.60;1.30;;;22.00;54.80;;;;;;6302542;22;20426;-76
2021/10/28 01:43:45;;;;;;;2.33;1.30;;;22.00;54.80;;;;;;6302901;22;20452;-76
2021/10/28 01:46:13;;;;;;;1.70;1.30;;;22.00;54.80;;;;;;6276839;22;20403;-76
2021/10/28 01:48:41;;;;;;;2.10;1.50;;;22.00;54.80;;;;;;6249050;22;20364;-76
2021/10/28 01:51:18;;;;;;;1.43;1.10;;;22.00;54.80;;;;;;6276760;22;20365;-76
2021/10/28 01:53:46;;;;;;;1.77;1.50;;;22.00;54.80;;;;;;6276314;22;20371;-76
2021/10/28 01:56:20;;;;;;;1.60;1.30;;;22.00;54.80;;;;;;6275456;22;20420;-76
2021/10/28 01:58:51;;;;;;;1.40;1.30;;;22.00;54.80;;;;;;6275420;22;20379;-76
2021/10/28 02:01:22;;;;;;;2.80;1.70;;;22.00;54.80;;;;;;6302343;22;20372;-76
2021/10/28 02:03:49;;;;;;;1.37;1.27;;;22.00;54.80;;;;;;6274939;22;20395;-77
2021/10/28 02:06:19;;;;;;;1.83;1.40;;;22.00;54.80;;;;;;6275343;22;20404;-76
2021/10/28 02:08:47;;;;;;;1.20;1.03;;;22.00;54.80;;;;;;6275609;22;20391;-76
2021/10/28 02:11:17;;;;;;;1.83;1.30;;;22.00;54.80;;;;;;6276245;22;20409;-76
2021/10/28 02:13:48;;;;;;;1.63;1.10;;;22.00;54.80;;;;;;6275242;22;20442;-77
2021/10/28 02:16:17;;;;;;;1.80;1.20;;;22.00;54.80;;;;;;6275604;22;20416;-77
2021/10/28 02:18:45;;;;;;;1.63;1.20;;;22.00;54.80;;;;;;6275792;22;20375;-76
2021/10/28 02:21:11;;;;;;;3.63;1.50;;;22.00;54.80;;;;;;6301867;22;20436;-76
2021/10/28 02:23:38;;;;;;;2.13;1.50;;;22.00;54.80;;;;;;6276025;22;20376;-76
2021/10/28 02:26:04;;;;;;;2.20;1.13;;;22.00;54.80;;;;;;6249931;22;20380;-76
2021/10/28 02:28:31;;;;;;;2.47;1.53;;;22.00;54.80;;;;;;6300683;22;20368;-76
2021/10/28 02:30:58;;;;;;;1.90;1.50;;;22.00;54.80;;;;;;6274531;22;20377;-76
2021/10/28 02:33:35;;;;;;;1.80;1.27;;;22.00;54.80;;;;;;6300882;22;20352;-76
2021/10/28 02:36:03;;;;;;;1.60;1.17;;;22.00;54.80;;;;;;6300543;22;20416;-76
2021/10/28 02:38:30;;;;;;;1.30;1.10;;;22.00;54.80;;;;;;6274309;22;20365;-76
2021/10/28 02:41:02;;;;;;;1.60;1.33;;;22.00;54.80;;;;;;6275131;22;20922;-76
2021/10/28 02:43:31;;;;;;;1.83;1.43;;;22.00;55.40;;;;;;6250676;22;20369;-76
2021/10/28 02:46:03;;;;;;;1.30;1.20;;;22.00;54.80;;;;;;6275379;22;20380;-76
2021/10/28 02:48:32;;;;;;;1.63;1.20;;;22.00;54.80;;;;;;6248252;22;20407;-76
2021/10/28 02:51:03;;;;;;;1.60;1.33;;;22.00;54.80;;;;;;6250209;22;20387;-76
2021/10/28 02:53:31;;;;;;;1.50;1.30;;;22.00;54.80;;;;;;6250975;22;20467;-76
2021/10/28 02:55:57;;;;;;;2.20;1.67;;;22.00;54.90;;;;;;6302964;22;20471;-76
2021/10/28 02:58:24;;;;;;;1.70;1.20;;;22.00;54.80;;;;;;6276685;22;20368;-76
2021/10/28 03:00:52;;;;;;;1.50;1.10;;;22.00;54.80;;;;;;6303304;22;20345;-76
2021/10/28 03:03:19;;;;;;;1.40;1.30;;;22.00;54.80;;;;;;6277462;22;20384;-75
2021/10/28 03:05:47;;;;;;;2.00;1.20;;;22.00;54.80;;;;;;6277661;22;20411;-76
2021/10/28 03:08:20;;;;;;;1.70;1.57;;;22.00;54.80;;;;;;6279312;22;20364;-76
2021/10/28 03:10:51;;;;;;;1.83;1.40;;;22.00;54.80;;;;;;6278333;22;21060;-76
2021/10/28 03:13:20;;;;;;;2.10;1.50;;;22.00;54.80;;;;;;6278452;22;20341;-76
2021/10/28 03:15:52;;;;;;;1.57;1.30;;;22.00;54.80;;;;;;6279051;22;20842;-76
2021/10/28 03:27:05;;;;;;;1.50;1.27;;;21.90;54.80;;;;;;6242460;23;20381;-77
2021/10/28 03:29:38;;;;;;;1.60;1.10;;;21.90;54.80;;;;;;6242999;23;20376;-76
2021/10/28 03:32:08;;;;;;;1.70;1.30;;;21.90;54.80;;;;;;6243124;23;20382;-76
2021/10/28 03:34:43;;;;;;;2.00;1.70;;;21.90;54.80;;;;;;6243033;23;20434;-77
2021/10/28 03:57:36;;;;;;;1.63;1.17;;;21.90;55.00;;;;;;6066202;23;20423;-77
2021/10/28 04:00:20;;;;;;;1.73;1.20;;;21.90;55.00;;;;;;6093568;23;20385;-77
2021/10/28 04:17:12;;;;;;;1.43;1.10;;;21.80;54.90;;;;;;6093588;23;20406;-78
2021/10/28 04:29:04;;;;;;;1.50;1.40;;;21.80;54.90;;;;;;6147759;23;20368;-78
2021/10/28 04:31:39;;;;;;;1.77;1.43;;;21.80;55.00;;;;;;6157162;23;20399;-78
2021/10/28 04:34:17;;;;;;;1.37;1.27;;;21.80;54.90;;;;;;6254647;22;20372;-78
2021/10/28 04:36:44;;;;;;;1.80;1.40;;;21.80;54.80;;;;;;6278912;22;20420;-78
2021/10/28 04:39:13;;;;;;;1.40;1.30;;;21.80;54.80;;;;;;6253368;22;20377;-77
2021/10/28 04:41:43;;;;;;;3.40;1.40;;;21.80;54.80;;;;;;6278950;22;20482;-77
2021/10/28 04:44:12;;;;;;;1.97;1.30;;;21.80;55.40;;;;;;6278141;22;20361;-76
2021/10/28 04:46:41;;;;;;;1.50;1.30;;;21.80;54.80;;;;;;6279000;22;20487;-77
2021/10/28 04:49:09;;;;;;;1.70;1.40;;;21.80;54.80;;;;;;6253378;22;20387;-77
2021/10/28 04:51:50;;;;;;;1.50;1.37;;;21.80;54.80;;;;;;6278249;22;20396;-77
2021/10/28 04:54:31;;;;;;;1.67;1.30;;;21.80;54.80;;;;;;6305081;22;20368;-77
2021/10/28 04:57:00;;;;;;;1.77;1.43;;;21.80;54.80;;;;;;6277510;22;20419;-77
2021/10/28 04:59:30;;;;;;;2.00;1.63;;;21.80;54.80;;;;;;6252564;22;20391;-77
2021/10/28 05:02:01;;;;;;;1.40;1.30;;;21.80;54.80;;;;;;6278670;22;20423;-78
2021/10/28 05:04:32;;;;;;;3.00;1.50;;;21.80;54.70;;;;;;6277031;22;20406;-77
2021/10/28 05:07:10;;;;;;;2.00;1.30;;;21.90;54.80;;;;;;6280082;22;20373;-77
2021/10/28 05:09:40;;;;;;;1.40;1.30;;;21.80;54.70;;;;;;6277662;22;20361;-78
2021/10/28 05:12:11;;;;;;;2.17;1.50;;;21.90;54.80;;;;;;6278229;22;20368;-78
2021/10/28 05:14:42;;;;;;;1.83;1.67;;;21.90;54.70;;;;;;6304283;22;20391;-78
2021/10/28 05:17:44;;;;;;;1.90;1.80;;;21.90;54.60;;;;;;6300548;22;20430;-78
2021/10/28 05:20:12;;;;;;;2.10;1.87;;;21.90;54.60;;;;;;6277823;22;20444;-78
2021/10/28 05:22:47;;;;;;;1.57;1.30;;;21.90;54.60;;;;;;6227471;22;20598;-78
2021/10/28 05:25:15;;;;;;;1.80;1.67;;;21.90;54.50;;;;;;6277533;22;20393;-78
2021/10/28 05:27:53;;;;;;;1.60;1.50;;;21.90;54.60;;;;;;6304454;22;20400;-79
2021/10/28 05:30:26;;;;;;;1.57;1.40;;;21.90;54.50;;;;;;6230157;22;20455;-77
2021/10/28 05:33:13;;;;;;;1.80;1.20;;;21.90;54.50;;;;;;6280188;22;20384;-77
2021/10/28 05:35:44;;;;;;;2.13;1.77;;;21.90;54.50;;;;;;6276962;22;20790;-77
2021/10/28 05:38:27;;;;;;;2.53;1.40;;;21.90;54.50;;;;;;6302573;22;20396;-78
2021/10/28 05:40:57;;;;;;;2.03;1.47;;;21.90;54.40;;;;;;6302883;22;20388;-77
2021/10/28 05:43:43;;;;;;;3.60;1.50;;;21.90;54.40;;;;;;6304149;22;20369;-77
2021/10/28 05:46:22;;;;;;;1.57;1.47;;;21.90;54.40;;;;;;6304008;22;20420;-77
2021/10/28 05:48:57;;;;;;;1.60;1.50;;;21.90;54.40;;;;;;6274066;22;20411;-78
2021/10/28 05:51:30;;;;;;;1.50;1.40;;;21.90;54.40;;;;;;6304166;22;20345;-77
2021/10/28 05:54:01;;;;;;;2.23;1.53;;;21.90;54.40;;;;;;6304415;22;20341;-76
2021/10/28 05:56:34;;;;;;;1.70;1.60;;;21.90;54.40;;;;;;6297451;22;20446;-76
2021/10/28 05:59:08;;;;;;;1.40;1.20;;;22.00;54.40;;;;;;6278173;22;20404;-76
2021/10/28 06:01:41;;;;;;;1.60;1.50;;;21.90;54.40;;;;;;6277971;22;20412;-77
2021/10/28 06:04:22;;;;;;;1.60;1.50;;;22.00;54.60;;;;;;6299613;22;20361;-76
2021/10/28 06:06:56;;;;;;;1.53;1.40;;;22.00;54.40;;;;;;6250525;22;20396;-78
2021/10/28 06:09:25;;;;;;;1.50;1.30;;;21.90;54.30;;;;;;6304443;22;20383;-78
2021/10/28 06:12:37;;;;;;;2.07;1.63;;;21.90;54.30;;;;;;6277876;22;20863;-77
2021/10/28 06:15:07;;;;;;;1.60;1.40;;;22.00;54.40;;;;;;6277521;22;20435;-78
2021/10/28 06:17:51;;;;;;;1.90;1.60;;;21.90;54.30;;;;;;6303641;22;20387;-78
2021/10/28 06:20:27;;;;;;;2.33;1.70;;;22.00;54.40;;;;;;6278813;22;20324;-78
2021/10/28 06:22:56;;;;;;;1.50;1.40;;;22.00;54.40;;;;;;6268484;22;20361;-77
2021/10/28 06:25:31;;;;;;;2.03;1.77;;;22.00;54.40;;;;;;6276588;22;20392;-77
2021/10/28 06:28:13;;;;;;;1.50;1.40;;;22.00;54.30;;;;;;6303231;22;20394;-78
2021/10/28 06:34:27;;;;;;;1.63;1.50;;;22.00;54.30;;;;;;6304091;22;20367;-78
2021/10/28 06:39:48;;;;;;;1.57;1.47;;;22.00;54.40;;;;;;6239464;22;20359;-77
2021/10/28 06:42:38;;;;;;;3.17;1.77;;;22.00;54.30;;;;;;6303905;22;20348;-78
2021/10/28 06:45:08;;;;;;;2.60;1.53;;;22.00;54.30;;;;;;6247700;22;20392;-79
2021/10/28 06:47:35;;;;;;;2.20;1.50;;;22.00;54.30;;;;;;6277126;22;20353;-78
2021/10/28 06:50:14;;;;;;;2.63;1.73;;;22.00;54.30;;;;;;6276618;22;20449;-77
2021/10/28 07:04:44;;;;;;;1.80;1.40;;;22.00;54.30;;;;;;6181060;23;20390;-77
2021/10/28 07:07:18;;;;;;;2.20;1.27;;;22.00;54.30;;;;;;6181037;23;20418;-77
2021/10/28 07:09:58;;;;;;;2.27;1.27;;;22.10;54.30;;;;;;6181015;23;20356;-77
2021/10/28 07:12:47;;;;;;;1.80;1.40;;;22.10;54.30;;;;;;6173954;23;20377;-77
2021/10/28 07:15:41;;;;;;;1.67;1.23;;;22.10;54.30;;;;;;6172053;23;20424;-78
2021/10/28 07:56:16;;;;;;;2.10;1.60;;;22.00;54.40;;;;;;5900073;24;20461;-77
2021/10/28 08:19:07;;;;;;;2.20;1.60;;;22.10;54.40;;;;;;6212573;23;20383;-78
2021/10/28 08:31:17;;;;;;;2.37;1.60;;;22.10;54.30;;;;;;6163190;23;20444;-78
2021/10/28 08:33:50;;;;;;;1.90;1.50;;;22.10;54.30;;;;;;6155518;23;20388;-78
2021/10/28 08:36:29;;;;;;;1.77;1.60;;;22.10;54.30;;;;;;6153914;23;20425;-78
2021/10/28 08:42:28;;;;;;;2.33;1.50;;;22.10;54.20;;;;;;6182330;23;20368;-78
2021/10/28 08:45:05;;;;;;;1.90;1.50;;;22.10;54.30;;;;;;6180152;23;20388;-78
2021/10/28 09:24:49;;;;;;;3.50;1.70;;;22.20;54.20;;;;;;6093830;23;20366;-78
2021/10/28 09:27:47;;;;;;;2.03;1.30;;;22.20;54.20;;;;;;6094520;23;20407;-78
2021/10/28 09:34:25;;;;;;;1.80;1.50;;;22.30;54.20;;;;;;6093815;23;20370;-78
2021/10/28 09:52:13;;;;;;;2.30;1.50;;;22.30;54.20;;;;;;6211581;23;20359;-78
2021/10/28 09:58:10;;;;;;;1.90;1.50;;;22.40;54.30;;;;;;6181071;23;20407;-78
2021/10/28 10:00:50;;;;;;;2.00;1.60;;;22.30;54.20;;;;;;6063860;23;20755;-77
2021/10/28 10:03:47;;;;;;;1.87;1.60;;;22.40;54.40;;;;;;6063980;23;20419;-78
2021/10/28 10:07:01;;;;;;;1.30;1.20;;;22.40;54.30;;;;;;6055182;23;20392;-78
2021/10/28 10:09:46;;;;;;;2.07;1.83;;;22.40;54.30;;;;;;6063556;23;20427;-78
2021/10/28 10:13:09;;;;;;;2.13;1.57;;;22.40;54.30;;;;;;6035177;23;20357;-78
2021/10/28 10:15:42;;;;;;;1.83;1.30;;;22.40;54.30;;;;;;6011095;23;20554;-78
2021/10/28 10:18:14;;;;;;;2.17;1.90;;;22.40;54.30;;;;;;6035171;23;20373;-78
2021/10/28 10:20:54;;;;;;;1.70;1.40;;;22.40;54.80;;;;;;6007135;23;20385;-78
2021/10/28 10:23:46;;;;;;;1.80;1.50;;;22.40;54.20;;;;;;6034258;23;20352;-78
2021/10/28 11:24:08;;;;;;;4.70;3.03;;;22.40;54.30;;;;;;6211056;23;20354;-79
2021/10/28 12:45:56;;;;;;;10.60;4.80;;;22.40;54.50;;;;;;6304166;22;20383;-78
2021/10/28 13:52:09;;;;;;;8.87;4.10;;;22.30;54.60;;;;;;6180376;23;20387;-78
2021/10/28 15:34:02;;;;;;;5.13;3.60;;;22.80;54.50;;;;;;6272485;23;20379;-78
2021/10/28 16:22:56;;;;;;;4.63;3.67;;;22.90;54.50;;;;;;6272815;23;20357;-78
2021/10/28 16:25:22;;;;;;;5.50;3.00;;;22.90;54.50;;;;;;6272825;23;20360;-77
2021/10/28 16:27:47;;;;;;;4.60;3.60;;;22.90;55.10;;;;;;6271915;23;20384;-77
2021/10/28 16:30:17;;;;;;;4.80;3.80;;;22.90;54.50;;;;;;6245565;23;20374;-78
2021/10/28 16:32:44;;;;;;;3.67;3.20;;;23.00;54.50;;;;;;6272333;23;20158;-77
2021/10/28 16:35:11;;;;;;;5.03;3.23;;;23.00;54.50;;;;;;6271775;23;20376;-78
2021/10/28 16:37:37;;;;;;;3.93;3.10;;;23.00;54.50;;;;;;6271519;23;20401;-79
2021/10/28 16:40:06;;;;;;;4.43;3.27;;;23.00;54.50;;;;;;6272488;23;20389;-78
2021/10/28 16:42:40;;;;;;;4.80;3.10;;;23.00;54.50;;;;;;6270888;23;20388;-78
2021/10/28 16:45:09;;;;;;;3.13;2.43;;;23.00;54.50;;;;;;6271171;23;20408;-78
2021/10/28 16:47:38;;;;;;;4.87;2.50;;;23.00;54.50;;;;;;6270706;22;20369;-78
2021/10/28 16:50:08;;;;;;;6.17;3.50;;;23.00;54.50;;;;;;6272416;23;20400;-78
2021/10/28 16:52:37;;;;;;;7.53;3.93;;;23.00;54.50;;;;;;6271495;23;20744;-77
2021/10/28 16:55:26;;;;;;;4.77;3.80;;;23.00;54.40;;;;;;6273308;23;20396;-78
2021/10/28 16:57:52;;;;;;;3.93;2.70;;;23.00;54.40;;;;;;6270116;23;20393;-77
2021/10/28 17:11:01;;;;;;;4.60;2.93;;;23.00;54.50;;;;;;6136044;23;20469;-84
2021/10/28 17:14:03;;;;;;;;;;;;;;;;;;;;;
2021/10/28 17:23:49;;;;;;;4.20;2.93;;;22.90;54.50;;;;;;6172764;23;20451;-83
2021/10/28 17:26:51;;;;;;;4.70;2.80;;;22.90;54.50;;;;;;6088899;23;20831;-84
2021/10/28 17:33:18;;;;;;;3.80;3.20;;;22.90;54.50;;;;;;5945398;23;20396;-85
2021/10/28 17:36:12;;;;;;;3.90;2.60;;;22.90;54.50;;;;;;6064236;23;20422;-85
2021/10/28 17:38:44;;;;;;;3.53;2.80;;;22.90;54.50;;;;;;6082105;23;20393;-85
2021/10/28 17:41:45;;;;;;;3.50;2.47;;;22.90;54.50;;;;;;6065484;23;20377;-80
2021/10/28 17:44:59;;;;;;;4.37;2.63;;;23.00;54.60;;;;;;6121903;23;20366;-80
2021/10/28 17:51:05;;;;;;;4.50;3.10;;;22.90;54.50;;;;;;6093116;23;20454;-78
2021/10/28 17:53:53;;;;;;;5.20;2.70;;;22.90;54.60;;;;;;6068861;23;20387;-80
2021/10/28 17:56:46;;;;;;;5.03;3.23;;;22.90;54.60;;;;;;6133633;23;20416;-79
2021/10/28 17:59:18;;;;;;;4.37;2.83;;;22.90;54.60;;;;;;6180942;23;20410;-79
2021/10/28 18:01:44;;;;;;;4.30;3.90;;;22.90;54.60;;;;;;6155296;23;20386;-79
2021/10/28 18:07:34;;;;;;;4.07;2.80;;;22.90;54.50;;;;;;6229325;23;20370;-79
2021/10/28 18:10:07;;;;;;;4.70;3.03;;;22.80;54.50;;;;;;6215252;23;20363;-80
2021/10/28 18:12:42;;;;;;;6.20;4.03;;;22.80;54.50;;;;;;6215195;23;20374;-79
2021/10/28 18:15:09;;;;;;;4.13;2.67;;;22.90;54.60;;;;;;6215417;23;20404;-79
2021/10/28 18:17:37;;;;;;;4.13;3.33;;;22.90;54.60;;;;;;6214715;23;20448;-80
2021/10/28 18:20:36;;;;;;;3.40;2.93;;;22.80;54.50;;;;;;6240821;23;20366;-80
2021/10/28 18:23:05;;;;;;;3.73;3.33;;;22.90;54.60;;;;;;6239533;23;20384;-80
2021/10/28 18:25:36;;;;;;;5.63;4.10;;;22.80;54.50;;;;;;6215810;23;20366;-79
2021/10/28 18:28:20;;;;;;;4.17;3.03;;;22.90;54.60;;;;;;6214607;23;20374;-79
2021/10/28 18:31:27;;;;;;;5.30;2.80;;;22.80;54.50;;;;;;6239760;23;20369;-79
2021/10/28 18:37:40;;;;;;;3.80;3.00;;;22.80;54.60;;;;;;6210183;23;20433;-78
2021/10/28 18:54:23;;;;;;;3.90;3.17;;;22.80;54.70;;;;;;6092341;23;20362;-80
2021/10/28 18:59:47;;;;;;;4.17;3.20;;;22.70;54.70;;;;;;6235043;22;20433;-78
2021/10/28 19:03:07;;;;;;;4.40;2.97;;;22.70;54.70;;;;;;6215536;23;20414;-78
2021/10/28 19:09:21;;;;;;;3.57;2.60;;;22.80;54.70;;;;;;6241732;23;20824;-78
2021/10/28 19:28:58;;;;;;;3.73;3.17;;;22.70;54.70;;;;;;6063077;23;20404;-78
2021/10/28 19:31:46;;;;;;;4.33;2.87;;;22.70;54.70;;;;;;6040236;23;20399;-79
2021/10/28 19:34:16;;;;;;;3.90;3.30;;;22.70;54.70;;;;;;6040041;23;20380;-79
2021/10/28 19:36:58;;;;;;;4.60;3.10;;;22.70;54.70;;;;;;6040265;23;20423;-79
2021/10/28 19:49:01;;;;;;;4.93;3.23;;;22.70;54.60;;;;;;5982402;24;20374;-79
2021/10/28 19:51:33;;;;;;;4.10;2.83;;;22.70;54.70;;;;;;5980534;24;20370;-79
2021/10/28 19:54:32;;;;;;;5.40;2.90;;;22.70;54.60;;;;;;6004385;23;20386;-79
2021/10/28 20:21:18;;;;;;;4.03;2.77;;;22.70;54.70;;;;;;5981818;23;20407;-78
2021/10/28 20:27:24;;;;;;;4.20;3.10;;;22.70;54.70;;;;;;5979328;24;20393;-78
2021/10/28 20:34:02;;;;;;;;;;;;;;;;;;;;;
2021/10/28 20:39:06;;;;;;;3.23;2.50;;;22.60;54.60;;;;;;5989170;23;20398;-78
2021/10/28 20:41:39;;;;;;;4.37;3.20;;;22.60;54.60;;;;;;6098203;23;20370;-79
2021/10/28 20:44:25;;;;;;;4.90;3.17;;;22.70;54.70;;;;;;6122301;23;20378;-79
2021/10/28 20:47:06;;;;;;;5.57;3.10;;;22.70;54.70;;;;;;6106736;23;20418;-79
2021/10/28 20:53:09;;;;;;;4.10;2.83;;;22.70;54.60;;;;;;6242572;23;20377;-79
2021/10/28 20:56:13;;;;;;;5.93;2.97;;;22.70;54.60;;;;;;6237765;23;20410;-79
2021/10/28 21:02:40;;;;;;;4.80;4.07;;;22.70;54.70;;;;;;6151322;23;20437;-79
2021/10/28 21:08:45;;;;;;;3.43;2.60;;;22.70;54.70;;;;;;6092674;23;20429;-79
2021/10/28 21:11:17;;;;;;;4.43;2.77;;;22.60;54.60;;;;;;6089360;23;20387;-79
2021/10/28 21:17:16;;;;;;;3.97;2.67;;;22.70;54.60;;;;;;6092359;23;20474;-79
2021/10/28 21:20:06;;;;;;;3.60;3.00;;;22.70;54.70;;;;;;6072132;23;20446;-78
2021/10/28 21:22:43;;;;;;;4.83;2.47;;;22.70;54.70;;;;;;6063516;23;20423;-79
2021/10/28 21:25:18;;;;;;;3.17;2.77;;;22.70;54.70;;;;;;6086249;23;20394;-78
2021/10/28 21:27:53;;;;;;;4.30;2.90;;;22.70;54.60;;;;;;6065495;23;20415;-79
2021/10/28 21:30:54;;;;;;;3.30;2.60;;;22.70;54.70;;;;;;6118689;23;20384;-79
2021/10/28 21:33:35;;;;;;;5.17;3.43;;;22.70;54.60;;;;;;6181243;23;20352;-79
2021/10/28 21:36:53;;;;;;;4.67;3.07;;;22.70;54.60;;;;;;6155953;23;20443;-78
2021/10/28 21:39:36;;;;;;;3.87;3.00;;;22.70;54.60;;;;;;6224264;23;20397;-78
2021/10/28 21:45:45;;;;;;;4.90;3.00;;;22.70;54.60;;;;;;6194912;23;20382;-79
2021/10/28 21:48:33;;;;;;;4.07;2.60;;;22.70;54.60;;;;;;6210979;23;20378;-79
2021/10/28 21:51:56;;;;;;;3.60;2.90;;;22.70;54.60;;;;;;6210184;23;20382;-80
2021/10/28 22:04:16;;;;;;;4.57;2.53;;;22.70;54.60;;;;;;6210349;23;20386;-78
2021/10/28 22:28:27;;;;;;;3.47;2.70;;;22.60;54.60;;;;;;5951338;24;20348;-78
2021/10/28 22:31:35;;;;;;;3.93;2.60;;;22.60;54.60;;;;;;5950723;24;20528;-78
2021/10/28 22:34:12;;;;;;;3.27;2.77;;;22.60;54.60;;;;;;5951664;24;20383;-78
2021/10/28 22:36:51;;;;;;;4.70;3.23;;;22.60;54.60;;;;;;5950394;24;20525;-78
2021/10/28 22:39:47;;;;;;;4.07;2.80;;;22.60;54.60;;;;;;5951180;24;20398;-78
2021/10/28 22:42:15;;;;;;;4.50;3.23;;;22.60;54.60;;;;;;5951382;24;20460;-78
2021/10/28 22:44:47;;;;;;;4.03;3.17;;;22.60;54.60;;;;;;5951918;24;20395;-79
2021/10/28 22:47:29;;;;;;;5.17;2.93;;;22.60;54.60;;;;;;5951054;24;20459;-78
2021/10/28 22:50:00;;;;;;;4.53;3.13;;;22.60;54.50;;;;;;6010855;23;20391;-78
2021/10/28 22:52:33;;;;;;;6.10;3.37;;;22.60;54.60;;;;;;6063991;23;20416;-78
2021/10/28 22:55:12;;;;;;;4.20;2.97;;;22.60;54.60;;;;;;6087591;23;20399;-78
2021/10/28 22:57:51;;;;;;;3.73;2.90;;;22.60;54.60;;;;;;6157961;23;20444;-78
2021/10/28 23:20:49;;;;;;;3.40;2.53;;;22.50;54.60;;;;;;6075722;23;20729;-78
2021/10/28 23:23:22;;;;;;;4.07;2.50;;;22.50;54.60;;;;;;6094098;23;20374;-78
2021/10/28 23:25:54;;;;;;;3.50;2.50;;;22.50;54.60;;;;;;6093253;23;20362;-79
2021/10/28 23:28:41;;;;;;;4.67;2.83;;;22.50;54.60;;;;;;6037864;23;20397;-78
2021/10/28 23:31:10;;;;;;;3.60;2.50;;;22.50;54.60;;;;;;6037142;23;20384;-78
2021/10/28 23:33:43;;;;;;;3.20;2.50;;;22.50;54.60;;;;;;6037411;23;20493;-79
2021/10/28 23:36:11;;;;;;;3.47;2.50;;;22.50;54.60;;;;;;6028775;23;20444;-79
2021/10/28 23:38:37;;;;;;;3.70;3.20;;;22.50;54.60;;;;;;6031505;23;20404;-79
2021/10/28 23:41:03;;;;;;;2.73;2.10;;;22.50;54.60;;;;;;6030342;23;20391;-80
2021/10/28 23:43:29;;;;;;;4.90;3.20;;;22.50;54.50;;;;;;6030045;23;20388;-79
2021/10/28 23:45:55;;;;;;;3.23;2.50;;;22.50;54.50;;;;;;6008444;23;20725;-80
2021/10/28 23:48:21;;;;;;;4.40;2.60;;;22.50;54.50;;;;;;6030407;23;20413;-79
2021/10/28 23:50:47;;;;;;;3.43;2.10;;;22.50;54.50;;;;;;6038753;23;20375;-79
2021/10/28 23:53:15;;;;;;;5.10;2.70;;;22.50;54.50;;;;;;6065114;23;20159;-79
2021/10/28 23:55:43;;;;;;;3.40;2.67;;;22.50;54.50;;;;;;6064028;23;20193;-79
